地図

経路データ

SID SEASON NUMBER BASIN SUBBASIN NAME ISO_TIME NATURE LAT LON WMO_WIND WMO_PRES WMO_AGENCY TRACK_TYPE DIST2LAND LANDFALL IFLAG USA_AGENCY USA_ATCF_ID USA_LAT USA_LON USA_RECORD USA_STATUS USA_WIND USA_PRES USA_SSHS USA_R34_NE USA_R34_SE USA_R34_SW USA_R34_NW USA_R50_NE USA_R50_SE USA_R50_SW USA_R50_NW USA_R64_NE USA_R64_SE USA_R64_SW USA_R64_NW USA_POCI USA_ROCI USA_RMW USA_EYE TOKYO_LAT TOKYO_LON TOKYO_GRADE TOKYO_WIND TOKYO_PRES TOKYO_R50_DIR TOKYO_R50_LONG TOKYO_R50_SHORT TOKYO_R30_DIR TOKYO_R30_LONG TOKYO_R30_SHORT TOKYO_LAND CMA_LAT CMA_LON CMA_CAT CMA_WIND CMA_PRES HKO_LAT HKO_LON HKO_CAT HKO_WIND HKO_PRES NEWDELHI_LAT NEWDELHI_LON NEWDELHI_GRADE NEWDELHI_WIND NEWDELHI_PRES NEWDELHI_CI NEWDELHI_DP NEWDELHI_POCI REUNION_LAT REUNION_LON REUNION_TYPE REUNION_WIND REUNION_PRES REUNION_TNUM REUNION_CI REUNION_RMW REUNION_R34_NE REUNION_R34_SE REUNION_R34_SW REUNION_R34_NW REUNION_R50_NE REUNION_R50_SE REUNION_R50_SW REUNION_R50_NW REUNION_R64_NE REUNION_R64_SE REUNION_R64_SW REUNION_R64_NW BOM_LAT BOM_LON BOM_TYPE BOM_WIND BOM_PRES BOM_TNUM BOM_CI BOM_RMW BOM_R34_NE BOM_R34_SE BOM_R34_SW BOM_R34_NW BOM_R50_NE BOM_R50_SE BOM_R50_SW BOM_R50_NW BOM_R64_NE BOM_R64_SE BOM_R64_SW BOM_R64_NW BOM_ROCI BOM_POCI BOM_EYE BOM_POS_METHOD BOM_PRES_METHOD NADI_LAT NADI_LON NADI_CAT NADI_WIND NADI_PRES WELLINGTON_LAT WELLINGTON_LON WELLINGTON_WIND WELLINGTON_PRES DS824_LAT DS824_LON DS824_STAGE DS824_WIND DS824_PRES TD9636_LAT TD9636_LON TD9636_STAGE TD9636_WIND TD9636_PRES TD9635_LAT TD9635_LON TD9635_WIND TD9635_PRES TD9635_ROCI NEUMANN_LAT NEUMANN_LON NEUMANN_CLASS NEUMANN_WIND NEUMANN_PRES MLC_LAT MLC_LON MLC_CLASS MLC_WIND MLC_PRES USA_GUST BOM_GUST BOM_GUST_PER REUNION_GUST REUNION_GUST_PER USA_SEAHGT USA_SEARAD_NE USA_SEARAD_SE USA_SEARAD_SW USA_SEARAD_NW STORM_SPEED STORM_DIR
1880295N27285 1880 31 NA NA NOT_NAMED 1880-10-20 12:00:00 TS 27.1000 -75.3000 40 hurdat_atl main 349 349 O_____________ hurdat_atl AL111880 27.1000 -75.3000 TS 40 0 13 34
1880295N27285 1880 31 NA NA NOT_NAMED 1880-10-20 15:00:00 TS 27.6455 -74.8839 main 416 416 P_____________ AL111880 27.6455 -74.8839 TS 40 0 13 29
1880295N27285 1880 31 NA NA NOT_NAMED 1880-10-20 18:00:00 TS 28.2000 -74.6000 40 hurdat_atl main 483 483 O_____________ hurdat_atl AL111880 28.2000 -74.6000 TS 40 0 12 16
1880295N27285 1880 31 NA NA NOT_NAMED 1880-10-20 21:00:00 TS 28.7648 -74.5265 main 539 539 P_____________ AL111880 28.7648 -74.5265 TS 40 0 11 5
1880295N27285 1880 31 NA NA NOT_NAMED 1880-10-21 00:00:00 TS 29.3000 -74.5000 40 hurdat_atl main 582 578 O_____________ hurdat_atl AL111880 29.3000 -74.5000 TS 40 0 10 11
1880295N27285 1880 31 NA NA NOT_NAMED 1880-10-21 03:00:00 TS 29.7726 -74.3004 main 575 549 P_____________ AL111880 29.7726 -74.3004 TS 40 0 10 21
1880295N27285 1880 31 NA NA NOT_NAMED 1880-10-21 06:00:00 TS 30.2000 -74.1000 40 hurdat_atl main 549 513 O_____________ hurdat_atl AL111880 30.2000 -74.1000 TS 40 0 9 15
1880295N27285 1880 31 NA NA NOT_NAMED 1880-10-21 09:00:00 TS 30.6149 -74.0346 main 513 473 P_____________ AL111880 30.6149 -74.0346 TS 40 0 8 6
1880295N27285 1880 31 NA NA NOT_NAMED 1880-10-21 12:00:00 TS 31.0000 -74.0000 40 hurdat_atl main 473 449 O_____________ hurdat_atl AL111880 31.0000 -74.0000 TS 40 0 8 8
1880295N27285 1880 31 NA NA NOT_NAMED 1880-10-21 15:00:00 TS 31.3575 -73.9075 main 440 418 P_____________ AL111880 31.3575 -73.9075 TS 40 0 7 14
1880295N27285 1880 31 NA NA NOT_NAMED 1880-10-21 18:00:00 TS 31.7000 -73.8000 40 hurdat_atl main 418 397 O_____________ hurdat_atl AL111880 31.7000 -73.8000 TS 40 0 7 14
1880295N27285 1880 31 NA NA NOT_NAMED 1880-10-21 21:00:00 TS 32.0425 -73.7073 main 397 371 P_____________ AL111880 32.0425 -73.7073 TS 45 0 7 13
1880295N27285 1880 31 NA NA NOT_NAMED 1880-10-22 00:00:00 TS 32.4000 -73.6000 50 hurdat_atl main 371 348 O_____________ hurdat_atl AL111880 32.4000 -73.6000 TS 50 0 8 15
1880295N27285 1880 31 NA NA NOT_NAMED 1880-10-22 03:00:00 TS 32.7925 -73.4575 main 348 333 P_____________ AL111880 32.7925 -73.4575 TS 50 0 8 18
1880295N27285 1880 31 NA NA NOT_NAMED 1880-10-22 06:00:00 TS 33.2000 -73.3000 50 hurdat_atl main 334 324 O_____________ hurdat_atl AL111880 33.2000 -73.3000 TS 50 0 8 18
1880295N27285 1880 31 NA NA NOT_NAMED 1880-10-22 09:00:00 TS 33.5625 -73.1570 main 319 303 P_____________ AL111880 33.5625 -73.1570 TS 50 0 8 17
1880295N27285 1880 31 NA NA NOT_NAMED 1880-10-22 12:00:00 TS 34.0000 -73.0000 50 hurdat_atl main 303 276 O_____________ hurdat_atl AL111880 34.0000 -73.0000 TS 50 0 10 15
1880295N27285 1880 31 NA NA NOT_NAMED 1880-10-22 15:00:00 TS 34.5449 -72.8359 main 284 264 P_____________ AL111880 34.5449 -72.8359 TS 50 0 13 14
1880295N27285 1880 31 NA NA NOT_NAMED 1880-10-22 18:00:00 TS 35.3000 -72.6000 50 hurdat_atl main 267 265 O_____________ hurdat_atl AL111880 35.3000 -72.6000 TS 50 0 18 15
1880295N27285 1880 31 NA NA NOT_NAMED 1880-10-22 21:00:00 TS 36.2948 -72.2656 main 292 292 P_____________ AL111880 36.2948 -72.2656 TS 55 0 23 16
1880295N27285 1880 31 NA NA NOT_NAMED 1880-10-23 00:00:00 TS 37.5000 -71.8000 60 hurdat_atl main 302 262 O_____________ hurdat_atl AL111880 37.5000 -71.8000 TS 60 0 26 19
1880295N27285 1880 31 NA NA NOT_NAMED 1880-10-23 03:00:00 TS 38.7479 -71.2043 main 262 156 P_____________ AL111880 38.7479 -71.2043 TS 60 0 29 21
1880295N27285 1880 31 NA NA NOT_NAMED 1880-10-23 06:00:00 ET 40.2000 -70.5000 60 hurdat_atl main 145 44 O_____________ hurdat_atl AL111880 40.2000 -70.5000 EX 60 -4 33 20
1880295N27285 1880 31 NA NA NOT_NAMED 1880-10-23 08:00:00 ET 41.3000 -70.0000 60 hurdat_atl main 44 13 O_____________ hurdat_atl AL111880 41.3000 -70.0000 L EX 60 -4 35 19
1880295N27285 1880 31 NA NA NOT_NAMED 1880-10-23 09:00:00 ET 41.8615 -69.7384 main 27 27 P_____________ AL111880 41.8615 -69.7384 EX 60 -4 35 19
1880295N27285 1880 31 NA NA NOT_NAMED 1880-10-23 12:00:00 ET 43.5000 -69.0000 60 991 hurdat_atl main 47 26 O_____________ hurdat_atl AL111880 43.5000 -69.0000 EX 60 991 -4 34 18
1880295N27285 1880 31 NA NA NOT_NAMED 1880-10-23 13:00:00 ET 44.0000 -68.8000 60 991 hurdat_atl main 23 0 O_____________ hurdat_atl AL111880 44.0000 -68.8000 L EX 60 991 -4 29 16
1880295N27285 1880 31 NA NA NOT_NAMED 1880-10-23 15:00:00 ET 44.8928 -68.4412 main 0 0 P_____________ AL111880 44.8928 -68.4412 EX 55 -4 25 16
1880295N27285 1880 31 NA NA NOT_NAMED 1880-10-23 18:00:00 ET 46.0000 -68.0000 50 hurdat_atl main 0 0 O_____________ hurdat_atl AL111880 46.0000 -68.0000 EX 50 -4 22 15
1880295N27285 1880 31 NA NA NOT_NAMED 1880-10-23 21:00:00 ET 46.9927 -67.6475 main 0 0 P_____________ AL111880 46.9927 -67.6475 EX 50 -4 19 15
1880295N27285 1880 31 NA NA NOT_NAMED 1880-10-24 00:00:00 ET 47.8000 -67.3000 50 hurdat_atl main 0 0 O_____________ hurdat_atl AL111880 47.8000 -67.3000 EX 50 -4 16 20
1880295N27285 1880 31 NA NA NOT_NAMED 1880-10-24 03:00:00 ET 48.4597 -66.8434 main 0 0 P_____________ AL111880 48.4597 -66.8434 EX 50 -4 14 29
1880295N27285 1880 31 NA NA NOT_NAMED 1880-10-24 06:00:00 ET 49.0000 -66.3000 50 hurdat_atl main 0 0 O_____________ hurdat_atl AL111880 49.0000 -66.3000 EX 50 -4 13 35
1880295N27285 1880 31 NA NA NOT_NAMED 1880-10-24 09:00:00 ET 49.5297 -65.6866 main 33 33 P_____________ AL111880 49.5297 -65.6866 EX 50 -4 13 40
1880295N27285 1880 31 NA NA NOT_NAMED 1880-10-24 12:00:00 ET 50.0000 -65.0000 50 hurdat_atl main 33 0 O_____________ hurdat_atl AL111880 50.0000 -65.0000 EX 50 -4 13 46
1880295N27285 1880 31 NA NA NOT_NAMED 1880-10-24 15:00:00 ET 50.4160 -64.2647 main 0 0 P_____________ AL111880 50.4160 -64.2647 EX 50 -4 12 50
1880295N27285 1880 31 NA NA NOT_NAMED 1880-10-24 18:00:00 ET 50.8000 -63.5000 50 hurdat_atl main 0 O_____________ hurdat_atl AL111880 50.8000 -63.5000 EX 50 -4 12 51

IBTrACS Databaseについて

本データベースは、米国NOAAが公開する1842年以降の世界の熱帯低気圧のベストトラックデータアーカイブInternational Best Track Archive for Climate Stewardship (IBTrACS)を、ウェブで閲覧しやすい形式に変換したものです。

最終更新日:2021-12-01